Time;durP1;ratioP1;P1;durP2;ratioP2;P2;SDS_P1;SDS_P2;PMS_P1;PMS_P2;Temp;Humidity;BMP_temperature;BMP_pressure;BME280_temperature;BME280_humidity;BME280_pressure;Samples;Min_cycle;Max_cycle;Signal;HPM_P1;HPM_P2
2021/01/09 00:02:03;;;;;;;;;;;5.80;76.80;;;;;;4947129;28;120529;-78
2021/01/09 00:04:28;;;;;;;;;;;5.80;76.90;;;;;;4949273;28;117429;-78
2021/01/09 00:06:54;;;;;;;;;;;5.90;77.00;;;;;;4949876;28;117837;-78
2021/01/09 00:09:19;;;;;;;;;;;5.80;76.90;;;;;;4948609;28;119149;-77
2021/01/09 00:11:45;;;;;;;;;;;5.80;76.90;;;;;;4948722;28;117954;-78
2021/01/09 00:14:11;;;;;;;;;;;5.80;76.90;;;;;;4948892;28;117456;-79
2021/01/09 00:16:36;;;;;;;;;;;5.80;76.90;;;;;;4931933;28;117372;-78
2021/01/09 00:19:02;;;;;;;;;;;5.80;76.90;;;;;;4931050;28;121387;-78
2021/01/09 00:21:35;;;;;;;;;;;5.80;77.40;;;;;;4931066;28;120135;-77
2021/01/09 00:24:01;;;;;;;;;;;5.80;76.80;;;;;;4932077;28;117774;-78
2021/01/09 00:26:28;;;;;;;;;;;5.80;76.90;;;;;;4948559;28;117320;-79
2021/01/09 00:28:53;;;;;;;;;;;5.80;76.90;;;;;;4947597;28;117509;-78
2021/01/09 00:31:19;;;;;;;;;;;5.80;76.90;;;;;;4965093;28;117460;-78
2021/01/09 00:33:44;;;;;;;;;;;5.80;76.90;;;;;;4932785;28;117675;-78
2021/01/09 00:36:10;;;;;;;;;;;5.80;76.90;;;;;;4954225;22;117775;-77
2021/01/09 00:38:35;;;;;;;;;;;5.80;76.90;;;;;;4949847;28;121281;-77
2021/01/09 00:41:01;;;;;;;;;;;5.80;76.80;;;;;;4949063;28;119240;-77
2021/01/09 00:43:26;;;;;;;;;;;5.80;76.80;;;;;;4967245;28;117057;-77
2021/01/09 00:45:52;;;;;;;;;;;5.80;76.80;;;;;;4951191;28;117529;-77
2021/01/09 00:48:17;;;;;;;;;;;5.80;76.80;;;;;;4966225;28;120596;-77
2021/01/09 00:50:43;;;;;;;;;;;5.80;76.80;;;;;;4966452;28;117479;-77
2021/01/09 00:53:08;;;;;;;;;;;5.80;76.80;;;;;;4985289;28;117393;-77
2021/01/09 00:55:34;;;;;;;;;;;5.80;76.80;;;;;;4985445;28;117710;-77
2021/01/09 00:57:59;;;;;;;;;;;5.80;76.80;;;;;;4950339;28;119323;-77
2021/01/09 01:00:24;;;;;;;;;;;5.80;76.80;;;;;;4965817;28;122716;-77
2021/01/09 01:02:50;;;;;;;;;;;5.80;76.80;;;;;;4950713;28;117392;-77
2021/01/09 01:05:15;;;;;;;;;;;5.80;76.80;;;;;;4967059;28;117855;-77
2021/01/09 01:07:41;;;;;;;;;;;5.80;76.80;;;;;;4949730;28;119794;-77
2021/01/09 01:10:07;;;;;;;;;;;5.90;76.90;;;;;;4949619;28;119130;-77
2021/01/09 01:12:32;;;;;;;;;;;5.80;76.90;;;;;;4951926;28;117625;-77
2021/01/09 01:14:58;;;;;;;;;;;5.80;76.80;;;;;;4970953;28;117672;-77
2021/01/09 01:17:23;;;;;;;;;;;5.80;76.80;;;;;;4969258;28;119725;-77
2021/01/09 01:19:49;;;;;;;;;;;5.80;76.80;;;;;;4952872;28;119929;-77
2021/01/09 01:22:14;;;;;;;;;;;5.80;76.80;;;;;;4970496;28;117964;-77
2021/01/09 01:24:40;;;;;;;;;;;5.80;76.90;;;;;;4971082;28;117455;-77
2021/01/09 01:27:05;;;;;;;;;;;5.80;76.90;;;;;;4969486;28;118813;-77
2021/01/09 01:29:31;;;;;;;;;;;5.80;76.80;;;;;;4952017;28;117612;-77
2021/01/09 01:31:59;;;;;;;;;;;5.80;76.80;;;;;;4970202;28;117494;-77
2021/01/09 01:34:25;;;;;;;;;;;5.80;76.80;;;;;;4953926;28;117764;-77
2021/01/09 01:36:50;;;;;;;;;;;5.80;76.90;;;;;;4969105;28;117623;-77
2021/01/09 01:39:16;;;;;;;;;;;5.80;76.80;;;;;;4968896;28;117372;-78
2021/01/09 01:41:42;;;;;;;;;;;5.80;76.90;;;;;;4987920;28;117279;-77
2021/01/09 01:44:07;;;;;;;;;;;5.80;76.90;;;;;;4953733;28;117426;-77
2021/01/09 01:46:33;;;;;;;;;;;5.80;76.90;;;;;;4969297;28;118604;-77
2021/01/09 01:48:58;;;;;;;;;;;5.80;76.90;;;;;;4969003;28;117436;-77
2021/01/09 01:51:24;;;;;;;;;;;5.80;76.90;;;;;;4969889;28;117360;-77
2021/01/09 01:53:52;;;;;;;;;;;5.80;76.90;;;;;;4969754;28;117872;-77
2021/01/09 01:56:17;;;;;;;;;;;5.80;76.80;;;;;;4969277;28;117799;-77
2021/01/09 01:58:43;;;;;;;;;;;5.80;76.80;;;;;;4952238;28;118477;-77
2021/01/09 02:01:08;;;;;;;;;;;5.80;76.90;;;;;;4969562;28;117501;-77
2021/01/09 02:03:34;;;;;;;;;;;5.80;76.80;;;;;;4970122;28;117451;-77
2021/01/09 02:06:07;;;;;;;;;;;5.80;76.90;;;;;;4952230;28;120726;-77
2021/01/09 02:08:38;;;;;;;;;;;5.80;76.90;;;;;;4968545;28;118469;-77
2021/01/09 02:11:03;;;;;;;;;;;5.80;76.80;;;;;;4953091;28;117790;-77
2021/01/09 02:13:29;;;;;;;;;;;5.80;76.90;;;;;;4953445;28;117320;-77
2021/01/09 02:15:54;;;;;;;;;;;5.80;76.80;;;;;;4968417;28;121265;-77
2021/01/09 02:18:20;;;;;;;;;;;5.80;76.90;;;;;;4951541;28;119595;-77
2021/01/09 02:20:48;;;;;;;;;;;5.80;76.90;;;;;;4952641;28;117913;-77
2021/01/09 02:23:14;;;;;;;;;;;5.80;76.90;;;;;;4952899;28;117771;-77
2021/01/09 02:25:39;;;;;;;;;;;5.80;76.90;;;;;;4967768;28;121052;-77
2021/01/09 02:28:05;;;;;;;;;;;5.80;76.90;;;;;;4951959;28;117346;-77
2021/01/09 02:30:30;;;;;;;;;;;5.80;76.80;;;;;;4969035;28;117339;-77
2021/01/09 02:32:58;;;;;;;;;;;5.80;76.80;;;;;;4969726;28;117388;-77
2021/01/09 02:35:23;;;;;;;;;;;5.80;76.90;;;;;;4968578;28;118329;-77
2021/01/09 02:37:49;;;;;;;;;;;5.80;76.90;;;;;;4951571;28;119318;-77
2021/01/09 02:40:15;;;;;;;;;;;5.80;76.90;;;;;;4952522;28;117699;-77
2021/01/09 02:42:41;;;;;;;;;;;5.80;76.80;;;;;;4952475;28;117988;-77
2021/01/09 02:45:07;;;;;;;;;;;5.80;76.80;;;;;;4968428;28;118501;-77
2021/01/09 02:47:32;;;;;;;;;;;5.80;76.80;;;;;;4967998;28;117610;-77
2021/01/09 02:49:58;;;;;;;;;;;5.80;76.80;;;;;;4968800;28;117467;-77
2021/01/09 02:52:23;;;;;;;;;;;5.80;76.80;;;;;;4969329;28;117575;-78
2021/01/09 02:54:49;;;;;;;;;;;5.80;76.80;;;;;;4968040;28;117600;-77
2021/01/09 02:57:14;;;;;;;;;;;5.80;76.80;;;;;;4951369;28;119948;-77
2021/01/09 02:59:40;;;;;;;;;;;5.80;76.90;;;;;;4968944;28;117378;-77
2021/01/09 03:02:05;;;;;;;;;;;5.80;76.90;;;;;;4969127;28;117670;-77
2021/01/09 03:04:31;;;;;;;;;;;5.80;76.80;;;;;;4967930;28;117581;-77
2021/01/09 03:06:56;;;;;;;;;;;5.80;76.80;;;;;;4967461;28;117377;-77
2021/01/09 03:09:22;;;;;;;;;;;5.80;76.80;;;;;;4968531;28;117702;-77
2021/01/09 03:11:47;;;;;;;;;;;5.80;76.80;;;;;;4952464;28;117373;-77
2021/01/09 03:14:13;;;;;;;;;;;5.80;76.80;;;;;;4967789;28;118469;-77
2021/01/09 03:16:38;;;;;;;;;;;5.80;76.80;;;;;;4951163;28;120216;-77
2021/01/09 03:19:04;;;;;;;;;;;5.80;76.80;;;;;;4968384;28;118172;-77
2021/01/09 03:21:29;;;;;;;;;;;5.80;76.80;;;;;;4952237;28;117456;-77
2021/01/09 03:23:55;;;;;;;;;;;5.80;76.90;;;;;;4967977;28;117901;-77
2021/01/09 03:26:20;;;;;;;;;;;5.80;76.80;;;;;;4951114;28;118605;-77
2021/01/09 03:28:46;;;;;;;;;;;5.80;76.80;;;;;;4951857;28;117896;-77
2021/01/09 03:31:11;;;;;;;;;;;5.80;76.80;;;;;;4951525;28;117973;-77
2021/01/09 03:33:36;;;;;;;;;;;5.80;76.90;;;;;;4985207;28;117577;-77
2021/01/09 03:36:02;;;;;;;;;;;5.80;76.80;;;;;;4984548;28;118218;-77
2021/01/09 03:38:28;;;;;;;;;;;5.80;76.80;;;;;;4968246;28;117534;-77
2021/01/09 03:40:53;;;;;;;;;;;5.80;76.80;;;;;;4951817;28;117938;-77
2021/01/09 03:43:19;;;;;;;;;;;5.80;76.80;;;;;;4967540;28;118769;-77
2021/01/09 03:45:44;;;;;;;;;;;5.80;76.80;;;;;;4950746;28;118272;-77
2021/01/09 03:48:09;;;;;;;;;;;5.80;76.80;;;;;;4986113;28;117368;-77
2021/01/09 03:50:35;;;;;;;;;;;5.80;76.80;;;;;;4951771;28;117742;-77
2021/01/09 03:53:00;;;;;;;;;;;5.80;76.80;;;;;;4967011;28;120718;-77
2021/01/09 03:55:26;;;;;;;;;;;5.80;76.80;;;;;;4950169;28;120299;-77
2021/01/09 03:57:51;;;;;;;;;;;5.80;76.80;;;;;;4951310;28;117324;-77
2021/01/09 04:00:17;;;;;;;;;;;5.80;76.80;;;;;;4968186;28;117793;-77
2021/01/09 04:02:43;;;;;;;;;;;5.80;76.80;;;;;;4950594;28;119624;-77
2021/01/09 04:05:08;;;;;;;;;;;5.80;76.80;;;;;;4950550;28;119834;-77
2021/01/09 04:07:34;;;;;;;;;;;5.80;76.80;;;;;;4951328;28;117667;-77
2021/01/09 04:10:00;;;;;;;;;;;5.80;76.80;;;;;;4951343;28;117814;-77
2021/01/09 04:12:25;;;;;;;;;;;5.80;76.80;;;;;;4967195;28;117654;-77
2021/01/09 04:14:51;;;;;;;;;;;5.80;76.80;;;;;;4966975;28;117782;-77
2021/01/09 04:17:16;;;;;;;;;;;5.80;76.80;;;;;;4967427;28;117546;-77
2021/01/09 04:19:42;;;;;;;;;;;5.80;76.80;;;;;;4967325;28;117867;-77
2021/01/09 04:22:07;;;;;;;;;;;5.80;76.80;;;;;;4966858;28;118709;-77
2021/01/09 04:24:33;;;;;;;;;;;5.80;76.80;;;;;;4966912;28;117933;-77
2021/01/09 04:26:59;;;;;;;;;;;5.80;76.80;;;;;;4951081;28;117581;-77
2021/01/09 04:29:24;;;;;;;;;;;5.80;76.80;;;;;;4951167;28;117885;-78
2021/01/09 04:31:50;;;;;;;;;;;5.80;76.80;;;;;;4950079;28;117534;-77
2021/01/09 04:34:16;;;;;;;;;;;5.80;76.80;;;;;;4984365;28;117723;-77
2021/01/09 04:36:41;;;;;;;;;;;5.80;76.80;;;;;;4950831;28;117697;-77
2021/01/09 04:39:07;;;;;;;;;;;5.80;76.80;;;;;;4967797;28;117321;-77
2021/01/09 04:41:33;;;;;;;;;;;5.80;76.80;;;;;;4950167;28;120417;-77
2021/01/09 04:43:58;;;;;;;;;;;5.80;76.80;;;;;;4949419;28;118292;-77
2021/01/09 04:46:24;;;;;;;;;;;5.80;76.80;;;;;;4950748;28;117446;-78
2021/01/09 04:48:49;;;;;;;;;;;5.80;76.80;;;;;;4954046;28;117327;-78
2021/01/09 04:51:15;;;;;;;;;;;5.80;76.80;;;;;;4953439;28;120368;-78
2021/01/09 04:53:40;;;;;;;;;;;5.80;76.80;;;;;;4969937;28;117559;-77
2021/01/09 04:56:06;;;;;;;;;;;5.80;76.80;;;;;;4970845;28;117497;-77
2021/01/09 04:58:31;;;;;;;;;;;5.80;76.80;;;;;;4954419;28;117917;-77
2021/01/09 05:00:57;;;;;;;;;;;5.80;76.80;;;;;;4953204;28;120485;-77
2021/01/09 05:03:22;;;;;;;;;;;5.80;76.80;;;;;;4969827;28;118109;-77
2021/01/09 05:05:48;;;;;;;;;;;5.80;76.80;;;;;;4954356;28;117565;-77
2021/01/09 05:08:14;;;;;;;;;;;5.80;76.80;;;;;;4953936;28;117423;-77
2021/01/09 05:10:39;;;;;;;;;;;5.80;76.80;;;;;;4952762;28;120485;-78
2021/01/09 05:13:05;;;;;;;;;;;5.80;76.80;;;;;;4953148;28;118778;-78
2021/01/09 05:15:37;;;;;;;;;;;5.80;76.80;;;;;;4953899;28;117372;-78
2021/01/09 05:18:02;;;;;;;;;;;5.80;76.80;;;;;;4988501;28;117472;-77
2021/01/09 05:20:28;;;;;;;;;;;5.80;76.80;;;;;;4952791;28;120204;-77
2021/01/09 05:22:53;;;;;;;;;;;5.80;76.80;;;;;;4969608;28;117489;-77
2021/01/09 05:25:22;;;;;;;;;;;5.80;76.80;;;;;;4970394;28;117551;-77
2021/01/09 05:27:48;;;;;;;;;;;5.80;76.80;;;;;;4970357;28;117849;-77
2021/01/09 05:30:16;;;;;;;;;;;5.80;76.80;;;;;;4952622;28;118648;-77
2021/01/09 05:32:41;;;;;;;;;;;5.80;76.90;;;;;;4968718;28;117980;-77
2021/01/09 05:35:07;;;;;;;;;;;5.80;76.80;;;;;;4970003;28;117902;-77
2021/01/09 05:37:33;;;;;;;;;;;5.80;76.80;;;;;;4953629;28;117786;-77
2021/01/09 05:39:58;;;;;;;;;;;5.80;76.80;;;;;;4952234;28;120200;-77
2021/01/09 05:42:27;;;;;;;;;;;5.80;76.90;;;;;;4952650;28;120263;-77
2021/01/09 05:44:53;;;;;;;;;;;5.80;76.80;;;;;;4953419;28;117399;-78
2021/01/09 05:47:19;;;;;;;;;;;5.80;76.80;;;;;;4970553;28;117305;-77
2021/01/09 05:49:45;;;;;;;;;;;5.80;76.90;;;;;;4952530;28;120613;-78
2021/01/09 05:52:10;;;;;;;;;;;5.80;76.80;;;;;;4952454;28;119568;-78
2021/01/09 05:54:36;;;;;;;;;;;5.80;76.80;;;;;;4970028;28;117439;-78
2021/01/09 05:57:02;;;;;;;;;;;5.80;76.80;;;;;;4969686;28;117418;-77
2021/01/09 05:59:27;;;;;;;;;;;5.80;76.80;;;;;;4967644;28;118779;-77
2021/01/09 06:01:54;;;;;;;;;;;5.80;76.80;;;;;;4952401;28;117650;-77
2021/01/09 06:04:20;;;;;;;;;;;5.80;76.80;;;;;;4953282;28;117823;-77
2021/01/09 06:06:46;;;;;;;;;;;5.80;76.80;;;;;;4970303;28;117677;-77
2021/01/09 06:09:13;;;;;;;;;;;5.70;76.80;;;;;;4986076;28;118696;-77
2021/01/09 06:11:39;;;;;;;;;;;5.80;76.80;;;;;;4952317;28;117343;-77
2021/01/09 06:14:10;;;;;;;;;;;5.80;76.70;;;;;;4969861;28;117487;-77
2021/01/09 06:16:36;;;;;;;;;;;5.80;76.80;;;;;;4953662;28;117359;-77
2021/01/09 06:19:02;;;;;;;;;;;5.80;76.70;;;;;;4951677;28;119264;-78
2021/01/09 06:21:28;;;;;;;;;;;5.80;76.70;;;;;;4951630;28;118414;-78
2021/01/09 06:23:54;;;;;;;;;;;5.80;76.80;;;;;;4952814;28;117348;-78
2021/01/09 06:26:19;;;;;;;;;;;5.80;76.80;;;;;;4969815;28;117448;-78
2021/01/09 06:28:46;;;;;;;;;;;5.80;76.70;;;;;;4952084;28;121229;-78
2021/01/09 06:31:15;;;;;;;;;;;5.80;76.80;;;;;;4968041;28;117980;-78
2021/01/09 06:33:40;;;;;;;;;;;5.80;76.70;;;;;;4953076;28;117586;-78
2021/01/09 06:36:07;;;;;;;;;;;5.80;76.80;;;;;;4952769;28;117665;-78
2021/01/09 06:38:33;;;;;;;;;;;5.80;76.70;;;;;;4951898;28;120535;-78
2021/01/09 06:40:58;;;;;;;;;;;5.80;76.70;;;;;;4951638;28;120366;-78
2021/01/09 06:43:24;;;;;;;;;;;5.80;76.70;;;;;;4952625;28;117547;-77
2021/01/09 06:45:49;;;;;;;;;;;5.80;76.70;;;;;;4952214;28;117809;-77
2021/01/09 06:48:15;;;;;;;;;;;5.80;76.70;;;;;;4986196;28;118216;-77
2021/01/09 06:50:40;;;;;;;;;;;5.80;76.70;;;;;;4968212;28;117822;-77
2021/01/09 06:53:06;;;;;;;;;;;5.80;76.70;;;;;;4968993;28;117508;-78
2021/01/09 06:55:37;;;;;;;;;;;5.80;76.70;;;;;;4952395;28;117870;-78
2021/01/09 06:58:23;;;;;;;;;;;5.80;76.70;;;;;;4985897;28;117689;-77
2021/01/09 07:00:48;;;;;;;;;;;5.80;76.70;;;;;;4967056;28;119927;-77
2021/01/09 07:03:17;;;;;;;;;;;5.80;76.70;;;;;;4986748;28;117420;-76
2021/01/09 07:05:43;;;;;;;;;;;5.80;76.70;;;;;;4969173;28;117525;-76
2021/01/09 07:08:09;;;;;;;;;;;5.80;76.60;;;;;;4985644;28;117479;-78
2021/01/09 07:10:42;;;;;;;;;;;5.80;76.70;;;;;;4950010;28;118691;-78
2021/01/09 07:13:08;;;;;;;;;;;5.80;76.70;;;;;;4968879;28;117588;-78
2021/01/09 07:15:35;;;;;;;;;;;5.80;76.60;;;;;;4968952;28;117603;-78
2021/01/09 07:18:00;;;;;;;;;;;5.80;76.60;;;;;;4951144;28;120932;-78
2021/01/09 07:20:28;;;;;;;;;;;5.80;76.60;;;;;;4950804;28;118571;-77
2021/01/09 07:22:56;;;;;;;;;;;5.80;76.60;;;;;;4968470;28;117492;-77
2021/01/09 07:25:38;;;;;;;;;;;5.80;76.60;;;;;;4952263;28;118000;-77
2021/01/09 07:28:23;;;;;;;;;;;5.80;76.60;;;;;;4967716;28;117352;-77
2021/01/09 07:31:02;;;;;;;;;;;5.70;76.50;;;;;;4984459;28;117955;-77
2021/01/09 07:33:28;;;;;;;;;;;5.70;76.50;;;;;;4951967;28;117468;-77
2021/01/09 07:35:54;;;;;;;;;;;5.80;76.50;;;;;;4951145;28;117788;-77
2021/01/09 07:38:19;;;;;;;;;;;5.70;76.50;;;;;;4950833;28;120972;-77
2021/01/09 07:40:45;;;;;;;;;;;5.80;76.50;;;;;;4950468;28;119878;-77
2021/01/09 07:43:29;;;;;;;;;;;5.70;76.40;;;;;;4968001;28;117436;-77
2021/01/09 07:45:54;;;;;;;;;;;5.80;76.50;;;;;;4968199;28;117860;-77
2021/01/09 07:48:20;;;;;;;;;;;5.70;76.40;;;;;;4950590;28;120635;-77
2021/01/09 07:50:45;;;;;;;;;;;5.80;76.50;;;;;;4950604;28;118656;-78
2021/01/09 07:53:11;;;;;;;;;;;5.80;76.50;;;;;;4951589;28;117686;-78
2021/01/09 07:55:43;;;;;;;;;;;5.70;76.40;;;;;;4951948;28;117862;-77
2021/01/09 07:58:08;;;;;;;;;;;5.80;76.50;;;;;;4950439;28;119038;-77
2021/01/09 08:00:34;;;;;;;;;;;5.80;76.50;;;;;;4966470;28;118184;-78
2021/01/09 08:02:59;;;;;;;;;;;5.70;76.40;;;;;;4951264;28;117553;-78
2021/01/09 08:05:25;;;;;;;;;;;5.70;76.40;;;;;;4951526;28;117803;-78
2021/01/09 08:07:54;;;;;;;;;;;5.80;76.50;;;;;;4950568;28;119008;-78
2021/01/09 08:10:27;;;;;;;;;;;5.80;76.50;;;;;;4966934;28;117431;-78
2021/01/09 08:12:53;;;;;;;;;;;5.70;76.50;;;;;;4967879;28;117522;-77
2021/01/09 08:15:19;;;;;;;;;;;5.70;76.50;;;;;;4968085;28;118127;-77
2021/01/09 08:17:45;;;;;;;;;;;5.70;76.40;;;;;;4950350;28;118076;-77
2021/01/09 08:20:11;;;;;;;;;;;5.80;76.50;;;;;;4966825;28;117637;-85
2021/01/09 08:22:37;;;;;;;;;;;5.80;76.50;;;;;;4950552;28;117389;-85
2021/01/09 08:25:06;;;;;;;;;;;5.80;76.50;;;;;;4950906;28;117804;-85
2021/01/09 08:27:32;;;;;;;;;;;5.70;76.50;;;;;;4950428;28;121399;-85
2021/01/09 08:29:57;;;;;;;;;;;5.70;76.50;;;;;;4950205;28;119801;-86
2021/01/09 08:32:28;;;;;;;;;;;5.70;76.50;;;;;;4951161;28;117657;-86
2021/01/09 08:34:53;;;;;;;;;;;5.70;76.50;;;;;;4968733;28;117794;-86
2021/01/09 08:37:19;;;;;;;;;;;5.70;76.40;;;;;;4949634;28;118487;-86
2021/01/09 08:39:44;;;;;;;;;;;5.70;76.40;;;;;;4949919;28;120289;-86
2021/01/09 08:42:14;;;;;;;;;;;5.70;76.40;;;;;;4951121;28;117839;-86
2021/01/09 08:44:47;;;;;;;;;;;5.80;76.40;;;;;;4951424;28;117323;-86
2021/01/09 08:47:13;;;;;;;;;;;5.80;76.40;;;;;;4950234;28;118707;-86
2021/01/09 08:49:39;;;;;;;;;;;5.70;76.30;;;;;;4966003;28;118148;-86
2021/01/09 08:52:07;;;;;;;;;;;5.70;76.30;;;;;;4951227;28;117639;-86
2021/01/09 08:54:36;;;;;;;;;;;5.70;76.30;;;;;;4967758;28;117834;-86
2021/01/09 08:57:05;;;;;;;;;;;5.70;76.30;;;;;;4950409;28;119108;-86
2021/01/09 08:59:31;;;;;;;;;;;5.80;76.40;;;;;;4950282;28;118555;-86
2021/01/09 09:01:57;;;;;;;;;;;5.70;76.30;;;;;;4950722;28;117626;-86
2021/01/09 09:04:23;;;;;;;;;;;5.70;76.30;;;;;;4968100;28;117891;-86
2021/01/09 09:06:53;;;;;;;;;;;5.70;76.30;;;;;;4950326;28;118395;-86
2021/01/09 09:09:19;;;;;;;;;;;5.70;76.30;;;;;;4949605;28;117846;-86
2021/01/09 09:11:57;;;;;;;;;;;5.70;76.30;;;;;;4950915;28;117320;-86
2021/01/09 09:14:25;;;;;;;;;;;5.70;76.30;;;;;;4949878;28;117455;-86
2021/01/09 09:16:58;;;;;;;;;;;5.70;76.30;;;;;;4950407;28;117621;-78
2021/01/09 09:19:23;;;;;;;;;;;5.70;76.30;;;;;;4985994;28;117435;-79
2021/01/09 09:21:49;;;;;;;;;;;5.70;76.30;;;;;;4952327;28;117694;-78
2021/01/09 09:24:15;;;;;;;;;;;5.70;76.30;;;;;;4969427;28;117855;-79
2021/01/09 09:26:42;;;;;;;;;;;5.70;76.30;;;;;;4951551;28;120751;-78
2021/01/09 09:29:07;;;;;;;;;;;5.70;76.90;;;;;;4968013;28;117224;-78
2021/01/09 09:31:34;;;;;;;;;;;5.70;76.20;;;;;;4969230;28;117341;-78
2021/01/09 09:34:04;;;;;;;;;;;5.70;76.20;;;;;;4954758;28;117791;-78
2021/01/09 09:36:31;;;;;;;;;;;5.70;76.10;;;;;;4969392;28;117614;-78
2021/01/09 09:38:56;;;;;;;;;;;5.80;76.10;;;;;;4969278;28;118191;-78
2021/01/09 09:41:22;;;;;;;;;;;5.80;76.10;;;;;;4954813;28;117563;-78
2021/01/09 09:43:55;;;;;;;;;;;5.80;76.10;;;;;;4954932;28;117231;-78
2021/01/09 09:46:20;;;;;;;;;;;5.80;76.10;;;;;;4953118;28;118628;-78
2021/01/09 09:48:47;;;;;;;;;;;5.80;76.00;;;;;;4953690;28;117455;-78
2021/01/09 09:51:13;;;;;;;;;;;5.80;76.00;;;;;;4971198;28;117705;-78
2021/01/09 09:53:40;;;;;;;;;;;5.80;76.00;;;;;;4971539;28;117717;-78
2021/01/09 09:56:21;;;;;;;;;;;5.80;76.00;;;;;;4953785;28;119781;-77
2021/01/09 09:58:47;;;;;;;;;;;5.80;76.10;;;;;;4988340;28;117613;-80
2021/01/09 10:01:16;;;;;;;;;;;5.90;76.10;;;;;;4974596;28;117521;-80
2021/01/09 10:03:41;;;;;;;;;;;5.90;76.10;;;;;;4958459;28;117525;-80
2021/01/09 10:06:07;;;;;;;;;;;5.90;76.10;;;;;;4955580;28;117611;-80
2021/01/09 10:08:33;;;;;;;;;;;5.90;76.10;;;;;;4954849;28;119234;-80
2021/01/09 10:10:58;;;;;;;;;;;5.90;76.00;;;;;;4972745;28;117610;-80
2021/01/09 10:13:27;;;;;;;;;;;5.90;76.10;;;;;;4955406;28;117466;-80
2021/01/09 10:15:53;;;;;;;;;;;5.90;76.00;;;;;;4954400;28;119645;-80
2021/01/09 10:18:19;;;;;;;;;;;5.80;75.90;;;;;;4953789;28;117329;-80
2021/01/09 10:20:44;;;;;;;;;;;5.90;76.00;;;;;;4955217;28;117621;-79
2021/01/09 10:23:10;;;;;;;;;;;5.90;76.00;;;;;;4955357;28;118411;-79
2021/01/09 10:25:35;;;;;;;;;;;5.90;76.00;;;;;;4954129;28;119580;-79
2021/01/09 10:28:01;;;;;;;;;;;5.90;76.00;;;;;;4953677;28;117847;-79
2021/01/09 10:30:26;;;;;;;;;;;5.90;76.00;;;;;;4954573;28;117707;-79
2021/01/09 10:32:52;;;;;;;;;;;5.90;76.00;;;;;;4956083;28;117901;-79
2021/01/09 10:35:18;;;;;;;;;;;5.90;76.00;;;;;;4954582;28;118333;-79
2021/01/09 10:37:43;;;;;;;;;;;5.90;76.00;;;;;;4954743;28;118273;-80
2021/01/09 10:40:09;;;;;;;;;;;5.90;75.90;;;;;;4955751;28;117518;-80
2021/01/09 10:42:34;;;;;;;;;;;5.90;76.00;;;;;;4955417;28;117497;-78
2021/01/09 10:45:00;;;;;;;;;;;5.90;76.00;;;;;;4967765;28;117958;-77
2021/01/09 10:47:25;;;;;;;;;;;5.90;76.10;;;;;;4968307;28;117372;-77
2021/01/09 10:49:51;;;;;;;;;;;5.90;76.00;;;;;;4969081;28;117421;-77
2021/01/09 10:52:16;;;;;;;;;;;5.90;75.90;;;;;;4968803;28;117383;-77
2021/01/09 10:54:42;;;;;;;;;;;5.90;76.00;;;;;;4985810;28;119403;-77
2021/01/09 10:57:07;;;;;;;;;;;5.90;75.90;;;;;;4968076;28;117308;-77
2021/01/09 10:59:33;;;;;;;;;;;5.90;75.90;;;;;;4968757;28;117596;-77
2021/01/09 11:02:02;;;;;;;;;;;5.90;75.90;;;;;;4952926;28;117375;-77
2021/01/09 11:04:28;;;;;;;;;;;5.90;76.00;;;;;;4985782;28;117539;-77
2021/01/09 11:06:56;;;;;;;;;;;5.90;76.00;;;;;;4951465;28;120015;-77
2021/01/09 11:09:21;;;;;;;;;;;5.90;76.00;;;;;;4968808;28;117900;-77
2021/01/09 11:11:47;;;;;;;;;;;5.90;75.90;;;;;;4952736;28;117928;-77
2021/01/09 11:14:12;;;;;;;;;;;5.90;75.90;;;;;;4951262;28;119432;-77
2021/01/09 11:16:38;;;;;;;;;;;5.90;75.90;;;;;;4967259;28;117929;-77
2021/01/09 11:19:03;;;;;;;;;;;5.90;76.00;;;;;;4951874;28;117561;-77
2021/01/09 11:21:29;;;;;;;;;;;5.90;75.90;;;;;;4952195;28;117866;-77
2021/01/09 11:23:54;;;;;;;;;;;5.90;76.00;;;;;;4951178;28;120502;-77
2021/01/09 11:26:26;;;;;;;;;;;5.90;75.90;;;;;;4951013;28;119482;-77
2021/01/09 11:28:52;;;;;;;;;;;5.90;76.00;;;;;;4951868;28;117311;-77
2021/01/09 11:31:18;;;;;;;;;;;5.90;76.00;;;;;;4968840;28;117349;-77
2021/01/09 11:33:43;;;;;;;;;;;5.90;76.00;;;;;;4967354;28;119441;-77
2021/01/09 11:36:09;;;;;;;;;;;5.90;75.90;;;;;;4950470;28;119470;-77
2021/01/09 11:38:35;;;;;;;;;;;5.90;75.90;;;;;;4951687;28;117552;-77
2021/01/09 11:41:01;;;;;;;;;;;5.90;75.90;;;;;;4967941;28;117325;-77
2021/01/09 11:43:26;;;;;;;;;;;5.90;75.90;;;;;;4950828;28;120586;-77
2021/01/09 11:45:52;;;;;;;;;;;5.90;75.90;;;;;;4950694;28;118515;-77
2021/01/09 11:48:17;;;;;;;;;;;5.90;75.90;;;;;;4968305;28;117829;-77
2021/01/09 11:50:43;;;;;;;;;;;6.00;76.00;;;;;;4952109;28;117442;-77
2021/01/09 11:53:08;;;;;;;;;;;5.90;75.90;;;;;;4967284;28;117570;-77
2021/01/09 11:55:34;;;;;;;;;;;5.90;75.90;;;;;;4967301;28;117550;-77
2021/01/09 11:57:59;;;;;;;;;;;6.00;75.90;;;;;;4950758;28;117792;-77
2021/01/09 12:00:25;;;;;;;;;;;5.90;75.90;;;;;;4951584;28;117519;-77
2021/01/09 12:02:50;;;;;;;;;;;5.90;75.90;;;;;;4967222;28;118443;-77
2021/01/09 12:05:16;;;;;;;;;;;5.90;75.90;;;;;;4966642;28;117658;-77
2021/01/09 12:07:42;;;;;;;;;;;5.90;75.90;;;;;;4951077;28;117322;-77
2021/01/09 12:10:08;;;;;;;;;;;5.90;75.90;;;;;;4951539;28;117861;-77
2021/01/09 12:12:34;;;;;;;;;;;5.90;75.90;;;;;;4950288;28;118641;-77
2021/01/09 12:14:59;;;;;;;;;;;5.90;75.90;;;;;;4950457;28;119155;-77
2021/01/09 12:17:25;;;;;;;;;;;5.90;75.90;;;;;;4951364;28;117259;-77
2021/01/09 12:19:50;;;;;;;;;;;5.90;75.90;;;;;;4951350;28;117379;-77
2021/01/09 12:22:16;;;;;;;;;;;5.90;75.90;;;;;;4950430;28;121356;-77
2021/01/09 12:24:41;;;;;;;;;;;5.90;75.90;;;;;;4967083;28;118059;-77
2021/01/09 12:27:07;;;;;;;;;;;5.90;76.00;;;;;;4951180;28;117931;-77
2021/01/09 12:29:33;;;;;;;;;;;5.90;75.90;;;;;;4967756;28;117395;-77
2021/01/09 12:31:58;;;;;;;;;;;5.90;75.90;;;;;;4950585;28;119992;-77
2021/01/09 12:34:24;;;;;;;;;;;5.90;75.90;;;;;;4950158;28;119678;-77
2021/01/09 12:36:50;;;;;;;;;;;5.90;75.90;;;;;;4966730;28;117519;-77
2021/01/09 12:39:15;;;;;;;;;;;5.90;76.00;;;;;;4950950;28;117827;-77
2021/01/09 12:41:41;;;;;;;;;;;5.90;75.90;;;;;;4984395;28;117408;-77
2021/01/09 12:44:07;;;;;;;;;;;5.90;76.00;;;;;;4950068;28;119367;-77
2021/01/09 12:46:36;;;;;;;;;;;5.90;75.90;;;;;;4951281;28;117373;-77
2021/01/09 12:49:02;;;;;;;;;;;5.90;75.90;;;;;;4967561;28;117499;-77
2021/01/09 12:51:27;;;;;;;;;;;5.90;76.00;;;;;;4949976;28;120541;-77
2021/01/09 12:53:53;;;;;;;;;;;5.90;75.90;;;;;;4949384;28;119730;-77
2021/01/09 12:56:19;;;;;;;;;;;5.90;75.90;;;;;;4950963;28;117471;-77
2021/01/09 12:58:44;;;;;;;;;;;5.90;76.00;;;;;;4951013;28;117939;-77
2021/01/09 13:01:10;;;;;;;;;;;5.90;75.90;;;;;;4949669;28;119614;-77
2021/01/09 13:03:35;;;;;;;;;;;5.90;75.90;;;;;;4966351;28;117463;-77
2021/01/09 13:06:01;;;;;;;;;;;5.90;75.90;;;;;;4966925;28;117803;-77
2021/01/09 13:08:26;;;;;;;;;;;5.90;76.00;;;;;;4952227;28;117574;-77
2021/01/09 13:10:52;;;;;;;;;;;5.90;75.90;;;;;;4952859;28;119680;-77
2021/01/09 13:13:17;;;;;;;;;;;5.90;75.90;;;;;;4953280;28;118557;-77
2021/01/09 13:15:43;;;;;;;;;;;5.90;75.90;;;;;;4953897;28;117625;-77
2021/01/09 13:18:08;;;;;;;;;;;5.90;75.90;;;;;;4970251;28;117356;-77
2021/01/09 13:20:36;;;;;;;;;;;5.90;75.90;;;;;;4952829;28;117399;-77
2021/01/09 13:23:02;;;;;;;;;;;5.90;76.00;;;;;;4952771;28;117781;-77
2021/01/09 13:25:27;;;;;;;;;;;5.90;76.00;;;;;;4953930;28;117517;-77
2021/01/09 13:27:53;;;;;;;;;;;5.90;75.90;;;;;;4970775;28;118125;-77
2021/01/09 13:30:19;;;;;;;;;;;5.90;75.90;;;;;;4952672;28;120521;-77
2021/01/09 13:32:45;;;;;;;;;;;5.90;75.90;;;;;;4953080;28;118984;-77
2021/01/09 13:35:10;;;;;;;;;;;5.90;75.90;;;;;;4953882;28;117856;-77
2021/01/09 13:37:39;;;;;;;;;;;5.90;75.90;;;;;;4970599;28;117614;-77
2021/01/09 13:40:05;;;;;;;;;;;5.90;75.90;;;;;;4986904;28;118700;-77
2021/01/09 13:42:31;;;;;;;;;;;5.90;75.90;;;;;;4952235;28;119925;-77
2021/01/09 13:44:56;;;;;;;;;;;5.90;75.90;;;;;;4953616;28;117433;-78
2021/01/09 13:47:22;;;;;;;;;;;5.90;75.90;;;;;;4953842;28;117490;-78
2021/01/09 13:49:48;;;;;;;;;;;5.90;75.90;;;;;;4987020;28;118720;-77
2021/01/09 13:52:13;;;;;;;;;;;5.90;75.90;;;;;;4969439;28;117507;-77
2021/01/09 13:54:39;;;;;;;;;;;5.90;75.90;;;;;;4953529;28;117386;-77
2021/01/09 13:57:04;;;;;;;;;;;5.90;75.90;;;;;;4970443;28;117875;-77
2021/01/09 13:59:30;;;;;;;;;;;5.90;75.90;;;;;;4952245;28;119422;-77
2021/01/09 14:01:57;;;;;;;;;;;5.90;75.90;;;;;;4968767;28;118633;-77
2021/01/09 14:04:22;;;;;;;;;;;5.90;75.90;;;;;;4953349;28;117612;-77
2021/01/09 14:06:48;;;;;;;;;;;5.90;75.90;;;;;;4969578;28;117344;-77
2021/01/09 14:09:13;;;;;;;;;;;5.90;75.80;;;;;;4952217;28;120133;-77
2021/01/09 14:11:39;;;;;;;;;;;5.90;75.90;;;;;;4952248;28;117485;-77